sensor_id;sensor_type;location;lat;lon;timestamp;pressure;altitude;pressure_sealevel;temperature;humidity
75855;BME280;64502;59.976;30.316;2023-08-20T00:00:13;102057.72;;;17.37;73.76
75855;BME280;64502;59.976;30.316;2023-08-20T00:02:42;102052.41;;;17.37;73.33
75855;BME280;64502;59.976;30.316;2023-08-20T00:05:08;102052.50;;;17.35;73.52
75855;BME280;64502;59.976;30.316;2023-08-20T00:07:34;102056.13;;;17.34;73.36
75855;BME280;64502;59.976;30.316;2023-08-20T00:10:00;102054.41;;;17.33;72.43
75855;BME280;64502;59.976;30.316;2023-08-20T00:12:26;102050.91;;;17.33;72.38
75855;BME280;64502;59.976;30.316;2023-08-20T00:14:57;102044.50;;;17.35;72.66
75855;BME280;64502;59.976;30.316;2023-08-20T00:17:36;102049.09;;;17.33;72.32
75855;BME280;64502;59.976;30.316;2023-08-20T00:20:04;102048.13;;;17.34;72.87
75855;BME280;64502;59.976;30.316;2023-08-20T00:22:36;102048.13;;;17.34;72.46
75855;BME280;64502;59.976;30.316;2023-08-20T00:25:02;102042.78;;;17.34;72.41
75855;BME280;64502;59.976;30.316;2023-08-20T00:27:29;102046.50;;;17.31;72.29
75855;BME280;64502;59.976;30.316;2023-08-20T00:29:55;102047.34;;;17.32;72.34
75855;BME280;64502;59.976;30.316;2023-08-20T00:32:20;102038.63;;;17.30;71.77
75855;BME280;64502;59.976;30.316;2023-08-20T00:34:46;102033.38;;;17.28;71.74
75855;BME280;64502;59.976;30.316;2023-08-20T00:37:11;102040.59;;;17.26;71.91
75855;BME280;64502;59.976;30.316;2023-08-20T00:39:37;102034.41;;;17.26;71.58
75855;BME280;64502;59.976;30.316;2023-08-20T00:42:03;102030.91;;;17.25;72.31
75855;BME280;64502;59.976;30.316;2023-08-20T00:44:30;102032.59;;;17.26;71.83
75855;BME280;64502;59.976;30.316;2023-08-20T00:46:55;102039.75;;;17.26;72.22
75855;BME280;64502;59.976;30.316;2023-08-20T00:49:21;102031.97;;;17.23;71.54
75855;BME280;64502;59.976;30.316;2023-08-20T00:51:47;102038.16;;;17.23;72.03
75855;BME280;64502;59.976;30.316;2023-08-20T00:54:13;102034.63;;;17.23;71.44
75855;BME280;64502;59.976;30.316;2023-08-20T00:56:38;102035.47;;;17.23;71.46
75855;BME280;64502;59.976;30.316;2023-08-20T00:59:05;102029.28;;;17.23;71.46
75855;BME280;64502;59.976;30.316;2023-08-20T01:01:31;102032.94;;;17.22;71.29
75855;BME280;64502;59.976;30.316;2023-08-20T01:03:56;102026.72;;;17.21;71.26
75855;BME280;64502;59.976;30.316;2023-08-20T01:12:00;102036.66;;;17.19;71.54
75855;BME280;64502;59.976;30.316;2023-08-20T01:14:26;102032.38;;;17.17;71.61
75855;BME280;64502;59.976;30.316;2023-08-20T01:16:52;102024.56;;;17.14;71.03
75855;BME280;64502;59.976;30.316;2023-08-20T01:19:19;102026.47;;;17.12;71.70
75855;BME280;64502;59.976;30.316;2023-08-20T01:30:25;102026.56;;;17.10;70.85
75855;BME280;64502;59.976;30.316;2023-08-20T01:32:53;102033.72;;;17.09;71.77
75855;BME280;64502;59.976;30.316;2023-08-20T01:35:19;102024.28;;;17.04;71.40
75855;BME280;64502;59.976;30.316;2023-08-20T01:37:44;102027.81;;;17.04;70.95
75855;BME280;64502;59.976;30.316;2023-08-20T01:40:10;102020.31;;;16.97;70.94
75855;BME280;64502;59.976;30.316;2023-08-20T01:42:37;102025.75;;;16.95;70.70
75855;BME280;64502;59.976;30.316;2023-08-20T01:45:03;102023.09;;;16.95;71.40
75855;BME280;64502;59.976;30.316;2023-08-20T01:47:29;102022.13;;;16.96;70.31
75855;BME280;64502;59.976;30.316;2023-08-20T01:49:55;102014.97;;;16.97;70.31
75855;BME280;64502;59.976;30.316;2023-08-20T01:52:20;102010.72;;;16.94;70.27
75855;BME280;64502;59.976;30.316;2023-08-20T01:54:47;102018.72;;;16.94;70.28
75855;BME280;64502;59.976;30.316;2023-08-20T01:57:13;102020.41;;;16.95;70.24
75855;BME280;64502;59.976;30.316;2023-08-20T01:59:39;102022.22;;;16.95;69.85
75855;BME280;64502;59.976;30.316;2023-08-20T02:02:04;102024.78;;;16.96;70.07
75855;BME280;64502;59.976;30.316;2023-08-20T02:04:31;102026.50;;;16.97;69.70
75855;BME280;64502;59.976;30.316;2023-08-20T02:06:57;102033.63;;;16.97;69.71
75855;BME280;64502;59.976;30.316;2023-08-20T02:09:22;102031.09;;;16.95;69.08
75855;BME280;64502;59.976;30.316;2023-08-20T02:11:47;102030.22;;;16.95;68.84
75855;BME280;64502;59.976;30.316;2023-08-20T02:14:13;102030.22;;;16.95;69.51
75855;BME280;64502;59.976;30.316;2023-08-20T02:16:38;102029.38;;;16.94;69.17
75855;BME280;64502;59.976;30.316;2023-08-20T02:19:04;102035.66;;;16.93;68.83
75855;BME280;64502;59.976;30.316;2023-08-20T02:21:31;102031.28;;;16.92;69.04
75855;BME280;64502;59.976;30.316;2023-08-20T02:23:57;102031.16;;;16.94;69.04
75855;BME280;64502;59.976;30.316;2023-08-20T02:26:23;102032.34;;;16.90;67.82
75855;BME280;64502;59.976;30.316;2023-08-20T02:28:48;102027.19;;;16.86;68.79
75855;BME280;64502;59.976;30.316;2023-08-20T02:31:14;102028.25;;;16.84;69.14
75855;BME280;64502;59.976;30.316;2023-08-20T02:33:39;102034.44;;;16.84;68.69
75855;BME280;64502;59.976;30.316;2023-08-20T02:36:05;102042.16;;;16.89;67.91
75855;BME280;64502;59.976;30.316;2023-08-20T02:38:30;102034.16;;;16.89;67.70
75855;BME280;64502;59.976;30.316;2023-08-20T02:40:56;102042.16;;;16.89;68.42
75855;BME280;64502;59.976;30.316;2023-08-20T02:43:22;102040.41;;;16.88;67.40
75855;BME280;64502;59.976;30.316;2023-08-20T02:45:47;102042.03;;;16.91;67.65
75855;BME280;64502;59.976;30.316;2023-08-20T02:48:13;102038.59;;;16.89;67.75
75855;BME280;64502;59.976;30.316;2023-08-20T02:50:39;102041.38;;;16.87;67.37
75855;BME280;64502;59.976;30.316;2023-08-20T02:53:05;102044.06;;;16.87;66.87
75855;BME280;64502;59.976;30.316;2023-08-20T02:55:31;102039.84;;;16.83;66.99
75855;BME280;64502;59.976;30.316;2023-08-20T02:57:57;102042.50;;;16.83;66.89
75855;BME280;64502;59.976;30.316;2023-08-20T03:00:22;102040.53;;;16.86;66.80
75855;BME280;64502;59.976;30.316;2023-08-20T03:02:48;102050.22;;;16.88;67.08
75855;BME280;64502;59.976;30.316;2023-08-20T03:05:13;102037.66;;;16.90;66.34
75855;BME280;64502;59.976;30.316;2023-08-20T03:07:39;102043.09;;;16.88;67.12
75855;BME280;64502;59.976;30.316;2023-08-20T03:10:05;102027.09;;;16.88;66.38
75855;BME280;64502;59.976;30.316;2023-08-20T03:12:31;102032.41;;;16.88;66.63
75855;BME280;64502;59.976;30.316;2023-08-20T03:14:56;102026.16;;;16.89;66.49
75855;BME280;64502;59.976;30.316;2023-08-20T03:17:22;102023.16;;;16.94;66.82
75855;BME280;64502;59.976;30.316;2023-08-20T03:19:58;102024.50;;;17.01;66.94
75855;BME280;64502;59.976;30.316;2023-08-20T03:22:25;102023.72;;;16.99;65.67
75855;BME280;64502;59.976;30.316;2023-08-20T03:24:51;102026.31;;;17.00;66.13
75855;BME280;64502;59.976;30.316;2023-08-20T03:27:17;102026.13;;;17.03;65.57
75855;BME280;64502;59.976;30.316;2023-08-20T03:29:43;102024.00;;;17.08;65.39
75855;BME280;64502;59.976;30.316;2023-08-20T03:32:09;102022.84;;;17.13;65.04
75855;BME280;64502;59.976;30.316;2023-08-20T03:34:35;102021.59;;;17.18;64.87
75855;BME280;64502;59.976;30.316;2023-08-20T03:37:01;102025.66;;;17.24;64.85
75855;BME280;64502;59.976;30.316;2023-08-20T03:39:26;102022.63;;;17.30;65.25
75855;BME280;64502;59.976;30.316;2023-08-20T03:41:52;102016.75;;;17.38;64.27
75855;BME280;64502;59.976;30.316;2023-08-20T03:44:18;102010.91;;;17.45;63.63
75855;BME280;64502;59.976;30.316;2023-08-20T03:46:43;102017.56;;;17.52;63.19
75855;BME280;64502;59.976;30.316;2023-08-20T03:49:09;102016.50;;;17.55;63.65
75855;BME280;64502;59.976;30.316;2023-08-20T03:51:34;102007.53;;;17.56;63.20
75855;BME280;64502;59.976;30.316;2023-08-20T03:54:00;102006.66;;;17.56;63.30
75855;BME280;64502;59.976;30.316;2023-08-20T03:56:25;102004.09;;;17.54;62.95
75855;BME280;64502;59.976;30.316;2023-08-20T03:58:50;102006.66;;;17.56;63.00
75855;BME280;64502;59.976;30.316;2023-08-20T04:01:18;102005.81;;;17.55;62.64
75855;BME280;64502;59.976;30.316;2023-08-20T04:03:45;102005.91;;;17.53;62.81
75855;BME280;64502;59.976;30.316;2023-08-20T04:06:10;102012.31;;;17.51;62.98
75855;BME280;64502;59.976;30.316;2023-08-20T04:08:36;102012.63;;;17.46;62.03
75855;BME280;64502;59.976;30.316;2023-08-20T04:11:01;102018.06;;;17.45;62.16
75855;BME280;64502;59.976;30.316;2023-08-20T04:13:27;102018.25;;;17.42;62.53
75855;BME280;64502;59.976;30.316;2023-08-20T04:15:53;102032.66;;;17.39;62.46
75855;BME280;64502;59.976;30.316;2023-08-20T04:18:18;102035.41;;;17.38;62.63
75855;BME280;64502;59.976;30.316;2023-08-20T04:20:43;102038.00;;;17.39;62.92
75855;BME280;64502;59.976;30.316;2023-08-20T04:23:09;102038.56;;;17.44;62.04
75855;BME280;64502;59.976;30.316;2023-08-20T04:25:34;102033.09;;;17.46;61.98
75855;BME280;64502;59.976;30.316;2023-08-20T04:28:00;102029.50;;;17.47;62.42
75855;BME280;64502;59.976;30.316;2023-08-20T04:30:25;102031.88;;;17.51;61.86
75855;BME280;64502;59.976;30.316;2023-08-20T04:32:51;102039.75;;;17.53;61.99
75855;BME280;64502;59.976;30.316;2023-08-20T04:35:16;102041.44;;;17.54;61.94
75855;BME280;64502;59.976;30.316;2023-08-20T04:37:42;102038.91;;;17.52;62.07
75855;BME280;64502;59.976;30.316;2023-08-20T04:40:08;102049.78;;;17.49;62.35
75855;BME280;64502;59.976;30.316;2023-08-20T04:42:33;102045.50;;;17.47;62.05
75855;BME280;64502;59.976;30.316;2023-08-20T04:44:59;102049.22;;;17.44;61.51
75855;BME280;64502;59.976;30.316;2023-08-20T04:47:24;102055.41;;;17.45;61.77
75855;BME280;64502;59.976;30.316;2023-08-20T04:49:50;102058.84;;;17.47;61.50
75855;BME280;64502;59.976;30.316;2023-08-20T04:52:15;102053.59;;;17.45;61.66
75855;BME280;64502;59.976;30.316;2023-08-20T04:54:41;102062.66;;;17.43;61.48
75855;BME280;64502;59.976;30.316;2023-08-20T04:57:07;102066.28;;;17.42;61.33
75855;BME280;64502;59.976;30.316;2023-08-20T04:59:32;102064.97;;;17.35;61.06
75855;BME280;64502;59.976;30.316;2023-08-20T05:01:59;102055.06;;;17.37;61.06
75855;BME280;64502;59.976;30.316;2023-08-20T05:04:24;102055.91;;;17.37;60.69
75855;BME280;64502;59.976;30.316;2023-08-20T05:06:50;102063.91;;;17.37;60.17
75855;BME280;64502;59.976;30.316;2023-08-20T05:09:15;102057.94;;;17.34;60.21
75855;BME280;64502;59.976;30.316;2023-08-20T05:11:41;102060.81;;;17.30;60.43
75855;BME280;64502;59.976;30.316;2023-08-20T05:14:07;102055.69;;;17.27;59.49
75855;BME280;64502;59.976;30.316;2023-08-20T05:16:32;102051.28;;;17.26;60.05
75855;BME280;64502;59.976;30.316;2023-08-20T05:18:58;102055.69;;;17.27;59.72
75855;BME280;64502;59.976;30.316;2023-08-20T05:21:23;102064.41;;;17.29;60.03
75855;BME280;64502;59.976;30.316;2023-08-20T05:23:49;102066.03;;;17.32;60.31
75855;BME280;64502;59.976;30.316;2023-08-20T05:26:14;102060.41;;;17.37;60.13
75855;BME280;64502;59.976;30.316;2023-08-20T05:28:40;102054.78;;;17.41;59.94
75855;BME280;64502;59.976;30.316;2023-08-20T05:31:05;102054.00;;;17.39;59.88
75855;BME280;64502;59.976;30.316;2023-08-20T05:33:31;102049.44;;;17.41;60.26
75855;BME280;64502;59.976;30.316;2023-08-20T05:35:58;102045.72;;;17.44;59.42
75855;BME280;64502;59.976;30.316;2023-08-20T05:38:23;102048.47;;;17.42;59.16
75855;BME280;64502;59.976;30.316;2023-08-20T05:40:49;102052.09;;;17.41;58.72
75855;BME280;64502;59.976;30.316;2023-08-20T05:43:14;102050.56;;;17.37;59.05
75855;BME280;64502;59.976;30.316;2023-08-20T05:45:39;102054.00;;;17.39;58.77
75855;BME280;64502;59.976;30.316;2023-08-20T05:48:05;102050.09;;;17.45;59.36
75855;BME280;64502;59.976;30.316;2023-08-20T05:50:31;102050.72;;;17.48;59.06
75855;BME280;64502;59.976;30.316;2023-08-20T05:52:56;102052.53;;;17.48;58.44
75855;BME280;64502;59.976;30.316;2023-08-20T05:55:21;102058.66;;;17.50;58.34
75855;BME280;64502;59.976;30.316;2023-08-20T05:57:47;102057.47;;;17.54;58.74
75855;BME280;64502;59.976;30.316;2023-08-20T06:00:12;102051.19;;;17.55;57.98
75855;BME280;64502;59.976;30.316;2023-08-20T06:02:39;102057.28;;;17.57;57.71
75855;BME280;64502;59.976;30.316;2023-08-20T06:05:04;102051.84;;;17.59;57.68
75855;BME280;64502;59.976;30.316;2023-08-20T06:07:30;102046.41;;;17.60;57.76
75855;BME280;64502;59.976;30.316;2023-08-20T06:09:56;102052.19;;;17.67;57.67
75855;BME280;64502;59.976;30.316;2023-08-20T06:12:23;102053.94;;;17.81;57.15
75855;BME280;64502;59.976;30.316;2023-08-20T06:14:48;102052.28;;;17.92;56.77
75855;BME280;64502;59.976;30.316;2023-08-20T06:17:14;102052.63;;;18.01;56.47
75855;BME280;64502;59.976;30.316;2023-08-20T06:19:39;102052.94;;;18.09;56.00
75855;BME280;64502;59.976;30.316;2023-08-20T06:22:05;102054.13;;;18.17;55.74
75855;BME280;64502;59.976;30.316;2023-08-20T06:24:31;102053.38;;;18.28;55.01
75855;BME280;64502;59.976;30.316;2023-08-20T06:26:56;102050.28;;;18.34;54.10
75855;BME280;64502;59.976;30.316;2023-08-20T06:29:21;102045.34;;;18.41;53.61
75855;BME280;64502;59.976;30.316;2023-08-20T06:31:48;102042.28;;;18.47;54.04
75855;BME280;64502;59.976;30.316;2023-08-20T06:34:14;102041.81;;;18.53;53.77
75855;BME280;64502;59.976;30.316;2023-08-20T06:36:39;102033.59;;;18.56;53.05
75855;BME280;64502;59.976;30.316;2023-08-20T06:39:05;102035.84;;;18.50;52.63
75855;BME280;64502;59.976;30.316;2023-08-20T06:41:30;102040.53;;;18.46;53.26
75855;BME280;64502;59.976;30.316;2023-08-20T06:43:56;102036.47;;;18.40;53.38
75855;BME280;64502;59.976;30.316;2023-08-20T06:46:21;102036.59;;;18.39;52.83
75855;BME280;64502;59.976;30.316;2023-08-20T06:48:47;102033.19;;;18.37;53.44
75855;BME280;64502;59.976;30.316;2023-08-20T06:51:14;102031.03;;;18.42;53.50
75855;BME280;64502;59.976;30.316;2023-08-20T06:53:40;102030.59;;;18.48;52.97
75855;BME280;64502;59.976;30.316;2023-08-20T06:56:07;102036.25;;;18.56;52.71
75855;BME280;64502;59.976;30.316;2023-08-20T06:58:33;102028.78;;;18.61;52.40
75855;BME280;64502;59.976;30.316;2023-08-20T07:00:59;102037.09;;;18.70;52.23
75855;BME280;64502;59.976;30.316;2023-08-20T07:03:33;102040.34;;;18.75;52.10
75855;BME280;64502;59.976;30.316;2023-08-20T07:05:59;102032.09;;;18.78;51.67
75855;BME280;64502;59.976;30.316;2023-08-20T07:08:24;102032.63;;;18.83;51.57
75855;BME280;64502;59.976;30.316;2023-08-20T07:10:50;102030.47;;;18.88;51.91
75855;BME280;64502;59.976;30.316;2023-08-20T07:13:15;102024.25;;;18.88;51.49
75855;BME280;64502;59.976;30.316;2023-08-20T07:15:41;102035.16;;;18.84;50.86
75855;BME280;64502;59.976;30.316;2023-08-20T07:18:06;102027.28;;;18.83;50.83
75855;BME280;64502;59.976;30.316;2023-08-20T07:20:32;102040.28;;;18.88;50.45
75855;BME280;64502;59.976;30.316;2023-08-20T07:22:57;102037.06;;;18.95;51.03
75855;BME280;64502;59.976;30.316;2023-08-20T07:25:22;102030.41;;;19.01;50.46
75855;BME280;64502;59.976;30.316;2023-08-20T07:27:48;102037.34;;;19.03;49.87
75855;BME280;64502;59.976;30.316;2023-08-20T07:30:13;102024.84;;;19.04;50.24
75855;BME280;64502;59.976;30.316;2023-08-20T07:32:39;102036.28;;;19.06;49.87
75855;BME280;64502;59.976;30.316;2023-08-20T07:35:04;102038.31;;;19.15;50.03
75855;BME280;64502;59.976;30.316;2023-08-20T07:37:30;102026.06;;;19.24;49.70
75855;BME280;64502;59.976;30.316;2023-08-20T07:39:55;102030.09;;;19.29;49.73
75855;BME280;64502;59.976;30.316;2023-08-20T07:42:21;102039.22;;;19.27;49.68
75855;BME280;64502;59.976;30.316;2023-08-20T07:44:46;102033.63;;;19.30;49.59
75855;BME280;64502;59.976;30.316;2023-08-20T07:47:12;102041.31;;;19.35;50.15
75855;BME280;64502;59.976;30.316;2023-08-20T07:49:37;102037.19;;;19.42;50.23
75855;BME280;64502;59.976;30.316;2023-08-20T07:52:03;102033.84;;;19.51;50.22
75855;BME280;64502;59.976;30.316;2023-08-20T07:54:29;102041.94;;;19.62;50.11
75855;BME280;64502;59.976;30.316;2023-08-20T07:56:54;102033.13;;;19.73;49.19
75855;BME280;64502;59.976;30.316;2023-08-20T07:59:20;102035.09;;;19.82;48.88
75855;BME280;64502;59.976;30.316;2023-08-20T08:01:45;102040.84;;;19.89;49.07
75855;BME280;64502;59.976;30.316;2023-08-20T08:04:10;102037.31;;;20.00;48.13
75855;BME280;64502;59.976;30.316;2023-08-20T08:06:36;102036.03;;;20.16;47.66
75855;BME280;64502;59.976;30.316;2023-08-20T08:09:27;102030.44;;;20.42;48.46
75855;BME280;64502;59.976;30.316;2023-08-20T08:11:52;102034.75;;;20.56;46.97
75855;BME280;64502;59.976;30.316;2023-08-20T08:14:18;102029.59;;;20.75;46.73
75855;BME280;64502;59.976;30.316;2023-08-20T08:16:45;102031.78;;;20.93;45.62
75855;BME280;64502;59.976;30.316;2023-08-20T08:19:10;102031.50;;;21.07;45.54
75855;BME280;64502;59.976;30.316;2023-08-20T08:21:36;102029.13;;;21.25;44.60
75855;BME280;64502;59.976;30.316;2023-08-20T08:24:02;102029.84;;;21.38;44.60
75855;BME280;64502;59.976;30.316;2023-08-20T08:26:28;102020.91;;;21.49;44.39
75855;BME280;64502;59.976;30.316;2023-08-20T08:28:53;102022.84;;;21.58;44.72
75855;BME280;64502;59.976;30.316;2023-08-20T08:31:19;102020.53;;;21.54;44.51
75855;BME280;64502;59.976;30.316;2023-08-20T08:33:44;102023.06;;;21.55;45.01
75855;BME280;64502;59.976;30.316;2023-08-20T08:36:10;102024.53;;;21.59;44.48
75855;BME280;64502;59.976;30.316;2023-08-20T08:38:36;102016.72;;;21.56;44.02
75855;BME280;64502;59.976;30.316;2023-08-20T08:41:03;102010.56;;;21.65;43.72
75855;BME280;64502;59.976;30.316;2023-08-20T08:43:31;102019.88;;;21.82;42.79
75855;BME280;64502;59.976;30.316;2023-08-20T08:45:57;102016.19;;;22.04;42.81
75855;BME280;64502;59.976;30.316;2023-08-20T08:48:24;102019.34;;;22.30;42.22
75855;BME280;64502;59.976;30.316;2023-08-20T08:50:51;102014.81;;;22.61;41.88
75855;BME280;64502;59.976;30.316;2023-08-20T08:53:17;102013.41;;;22.98;40.92
75855;BME280;64502;59.976;30.316;2023-08-20T08:55:43;102014.16;;;23.19;40.36
75855;BME280;64502;59.976;30.316;2023-08-20T08:58:08;101997.84;;;23.40;39.90
75855;BME280;64502;59.976;30.316;2023-08-20T09:00:34;102008.34;;;23.63;39.55
75855;BME280;64502;59.976;30.316;2023-08-20T09:02:59;102008.00;;;23.95;39.03
75855;BME280;64502;59.976;30.316;2023-08-20T09:05:25;101997.69;;;24.28;38.54
75855;BME280;64502;59.976;30.316;2023-08-20T09:07:56;101992.16;;;24.67;39.22
75855;BME280;64502;59.976;30.316;2023-08-20T09:10:26;101978.78;;;24.93;37.17
75855;BME280;64502;59.976;30.316;2023-08-20T09:12:54;101988.88;;;25.18;35.60
75855;BME280;64502;59.976;30.316;2023-08-20T09:15:21;101977.97;;;25.46;35.19
75855;BME280;64502;59.976;30.316;2023-08-20T09:17:46;101983.25;;;25.74;34.71
75855;BME280;64502;59.976;30.316;2023-08-20T09:20:12;101982.78;;;25.78;34.71
75855;BME280;64502;59.976;30.316;2023-08-20T09:22:37;101976.88;;;25.83;34.61
75855;BME280;64502;59.976;30.316;2023-08-20T09:25:04;101978.97;;;25.89;33.69
75855;BME280;64502;59.976;30.316;2023-08-20T09:27:29;101983.97;;;26.02;32.90
75855;BME280;64502;59.976;30.316;2023-08-20T09:30:04;101986.75;;;26.44;39.74
75855;BME280;64502;59.976;30.316;2023-08-20T09:32:29;101981.22;;;26.54;32.47
75855;BME280;64502;59.976;30.316;2023-08-20T09:34:55;101980.88;;;26.57;33.63
75855;BME280;64502;59.976;30.316;2023-08-20T09:37:23;101973.41;;;26.51;32.93
75855;BME280;64502;59.976;30.316;2023-08-20T09:39:49;101973.09;;;26.54;32.10
75855;BME280;64502;59.976;30.316;2023-08-20T09:42:15;101977.59;;;26.45;32.73
75855;BME280;64502;59.976;30.316;2023-08-20T09:44:43;101974.66;;;26.65;31.70
75855;BME280;64502;59.976;30.316;2023-08-20T09:47:14;101966.81;;;27.12;33.58
75855;BME280;64502;59.976;30.316;2023-08-20T09:49:41;101963.28;;;27.44;31.30
75855;BME280;64502;59.976;30.316;2023-08-20T09:52:10;101972.59;;;27.91;32.28
75855;BME280;64502;59.976;30.316;2023-08-20T09:54:52;101957.09;;;28.16;32.52
75855;BME280;64502;59.976;30.316;2023-08-20T09:57:39;101960.75;;;28.31;32.39
75855;BME280;64502;59.976;30.316;2023-08-20T10:00:07;101965.16;;;28.32;28.43
75855;BME280;64502;59.976;30.316;2023-08-20T10:02:37;101970.72;;;28.47;27.91
75855;BME280;64502;59.976;30.316;2023-08-20T10:05:07;101960.81;;;28.63;28.33
75855;BME280;64502;59.976;30.316;2023-08-20T10:07:33;101955.41;;;28.86;27.33
75855;BME280;64502;59.976;30.316;2023-08-20T10:10:01;101958.22;;;29.01;27.12
75855;BME280;64502;59.976;30.316;2023-08-20T10:12:28;101946.00;;;29.42;33.82
75855;BME280;64502;59.976;30.316;2023-08-20T10:14:55;101953.75;;;29.31;27.15
75855;BME280;64502;59.976;30.316;2023-08-20T10:17:22;101949.31;;;29.30;27.17
75855;BME280;64502;59.976;30.316;2023-08-20T10:19:48;101948.72;;;29.42;27.05
75855;BME280;64502;59.976;30.316;2023-08-20T10:22:13;101959.88;;;29.48;26.80
75855;BME280;64502;59.976;30.316;2023-08-20T10:24:59;101953.97;;;29.82;29.91
75855;BME280;64502;59.976;30.316;2023-08-20T10:27:30;101950.88;;;30.15;27.06
75855;BME280;64502;59.976;30.316;2023-08-20T10:29:58;101953.31;;;30.39;26.24
75855;BME280;64502;59.976;30.316;2023-08-20T10:32:50;101947.28;;;30.95;28.29
75855;BME280;64502;59.976;30.316;2023-08-20T10:35:26;101947.28;;;31.38;25.78
75855;BME280;64502;59.976;30.316;2023-08-20T10:38:06;101952.66;;;31.53;26.80
75855;BME280;64502;59.976;30.316;2023-08-20T10:40:58;101950.69;;;31.75;27.25
75855;BME280;64502;59.976;30.316;2023-08-20T10:46:13;101943.09;;;31.70;24.61
75855;BME280;64502;59.976;30.316;2023-08-20T10:48:40;101948.38;;;31.72;23.19
75855;BME280;64502;59.976;30.316;2023-08-20T10:51:30;101942.41;;;31.90;26.12
75855;BME280;64502;59.976;30.316;2023-08-20T10:54:03;101942.88;;;31.93;23.93
75855;BME280;64502;59.976;30.316;2023-08-20T10:56:48;101930.59;;;32.59;25.09
75855;BME280;64502;59.976;30.316;2023-08-20T10:59:17;101929.41;;;33.01;22.22
75855;BME280;64502;59.976;30.316;2023-08-20T11:01:47;101928.41;;;33.29;21.84
75855;BME280;64502;59.976;30.316;2023-08-20T11:04:18;101932.72;;;33.96;22.27
75855;BME280;64502;59.976;30.316;2023-08-20T11:06:44;101934.00;;;34.59;20.89
75855;BME280;64502;59.976;30.316;2023-08-20T11:09:10;101935.25;;;34.63;20.32
75855;BME280;64502;59.976;30.316;2023-08-20T11:11:39;101928.53;;;34.52;20.40
75855;BME280;64502;59.976;30.316;2023-08-20T11:14:12;101928.75;;;34.57;20.16
75855;BME280;64502;59.976;30.316;2023-08-20T11:16:39;101925.16;;;34.57;19.56
75855;BME280;64502;59.976;30.316;2023-08-20T11:19:05;101917.16;;;34.48;19.47
75855;BME280;64502;59.976;30.316;2023-08-20T11:21:34;101922.28;;;34.38;19.66
75855;BME280;64502;59.976;30.316;2023-08-20T11:24:01;101919.84;;;34.94;19.27
75855;BME280;64502;59.976;30.316;2023-08-20T11:26:26;101913.47;;;35.06;19.55
75855;BME280;64502;59.976;30.316;2023-08-20T11:28:52;101912.78;;;35.11;19.38
75855;BME280;64502;59.976;30.316;2023-08-20T11:31:18;101915.19;;;35.26;19.16
75855;BME280;64502;59.976;30.316;2023-08-20T11:33:44;101915.19;;;35.26;18.94
75855;BME280;64502;59.976;30.316;2023-08-20T11:36:09;101918.19;;;35.68;18.65
75855;BME280;64502;59.976;30.316;2023-08-20T11:38:35;101906.75;;;35.89;18.10
75855;BME280;64502;59.976;30.316;2023-08-20T11:41:00;101906.53;;;35.91;18.37
75855;BME280;64502;59.976;30.316;2023-08-20T11:43:29;101898.75;;;36.55;18.73
75855;BME280;64502;59.976;30.316;2023-08-20T11:45:55;101890.81;;;36.77;18.05
75855;BME280;64502;59.976;30.316;2023-08-20T11:48:21;101891.03;;;37.05;17.67
75855;BME280;64502;59.976;30.316;2023-08-20T11:50:47;101888.31;;;36.75;17.68
75855;BME280;64502;59.976;30.316;2023-08-20T11:53:13;101885.22;;;36.95;17.68
75855;BME280;64502;59.976;30.316;2023-08-20T11:55:39;101888.09;;;37.00;17.61
75855;BME280;64502;59.976;30.316;2023-08-20T11:58:09;101886.34;;;37.06;17.56
75855;BME280;64502;59.976;30.316;2023-08-20T12:00:35;101884.56;;;36.70;17.32
75855;BME280;64502;59.976;30.316;2023-08-20T12:03:01;101887.16;;;36.95;16.96
75855;BME280;64502;59.976;30.316;2023-08-20T12:05:27;101880.38;;;37.44;16.68
75855;BME280;64502;59.976;30.316;2023-08-20T12:07:57;101882.16;;;37.74;16.84
75855;BME280;64502;59.976;30.316;2023-08-20T12:10:27;101871.28;;;38.08;16.08
75855;BME280;64502;59.976;30.316;2023-08-20T12:12:54;101870.09;;;38.32;16.02
75855;BME280;64502;59.976;30.316;2023-08-20T12:15:20;101866.94;;;38.69;15.58
75855;BME280;64502;59.976;30.316;2023-08-20T12:18:03;101868.81;;;38.97;17.92
75855;BME280;64502;59.976;30.316;2023-08-20T12:20:33;101878.34;;;38.44;16.05
75855;BME280;64502;59.976;30.316;2023-08-20T12:23:02;101872.09;;;38.66;16.07
75855;BME280;64502;59.976;30.316;2023-08-20T12:25:33;101874.03;;;38.82;16.51
75855;BME280;64502;59.976;30.316;2023-08-20T12:28:00;101876.78;;;38.65;15.94
75855;BME280;64502;59.976;30.316;2023-08-20T12:30:26;101872.94;;;38.66;15.43
75855;BME280;64502;59.976;30.316;2023-08-20T12:32:51;101872.28;;;38.76;15.35
75855;BME280;64502;59.976;30.316;2023-08-20T12:35:17;101871.59;;;39.53;14.60
75855;BME280;64502;59.976;30.316;2023-08-20T12:37:42;101869.44;;;39.99;13.63
75855;BME280;64502;59.976;30.316;2023-08-20T12:40:08;101873.97;;;40.32;14.14
75855;BME280;64502;59.976;30.316;2023-08-20T12:42:37;101866.44;;;40.87;13.53
75855;BME280;64502;59.976;30.316;2023-08-20T12:45:06;101861.25;;;40.91;13.38
75855;BME280;64502;59.976;30.316;2023-08-20T12:47:33;101855.66;;;41.23;13.48
75855;BME280;64502;59.976;30.316;2023-08-20T12:49:59;101849.91;;;40.97;13.48
75855;BME280;64502;59.976;30.316;2023-08-20T12:52:25;101854.78;;;40.80;13.60
75855;BME280;64502;59.976;30.316;2023-08-20T12:54:50;101845.69;;;40.85;13.65